AirNav   Duncan Aviation - Near you to keep you flying
 
 1566 users online  

CT14 Bancroft Airport
East Windsor Hill, Connecticut, USA

GOING TO EAST WINDSOR HILL?


FAA INFORMATION EFFECTIVE 01 DECEMBER 2022

Location

FAA Identifier: CT14
Lat/Long: 41-52-00.3530N 072-36-58.3240W
41-52.005883N 072-36.972067W
41.8667647,-72.6162011
(estimated)
Elevation: 52 ft. / 16 m (estimated)
Variation: 14W (1985)
From city: 1 mile NW of EAST WINDSOR HILL, CT
Time zone: UTC -5 (UTC -4 during Daylight Saving Time)
Zip code: 06074

Airport Operations

Airport use: Private use. Permission required prior to landing
Activation date: 11/1962
Control tower: no
ARTCC: BOSTON CENTER
FSS: BRIDGEPORT FLIGHT SERVICE STATION
Attendance: UNATNDD
Wind indicator: yes
Segmented circle: no

Airport Communications

WX ASOS at BDL (5 nm NW): 118.15 (860-386-3480)
WX ASOS at HFD (8 nm S): PHONE 860-527-5837
WX AWOS-AV at CT71 (13 nm SW): 129.825
WX ASOS at BAF (18 nm N): 127.1 (413-568-2267)

Nearby radio navigation aids

VOR radial/distance  VOR name  Freq  Var
HFDr000/13.9HARTFORD VOR/DME114.9013W
BAFr180/18.3BARNES VORTAC113.0014W
CTRr163/29.5CHESTER VOR/DME115.1013W
ORWr318/33.3NORWICH VOR/DME110.0014W
MADr019/33.3MADISON VOR/DME110.4013W
PUTr275/34.9PUTNAM VOR/DME117.4014W

Airport Services

Airframe service: NONE
Powerplant service: NONE

Runway Information

Runway 13/31

Dimensions: 2400 x 100 ft. / 732 x 30 m
Surface: turf
Runway edge lights: STRB
RUNWAY 13  RUNWAY 31
Traffic pattern: leftleft

Airport Ownership and Management from official FAA records

Ownership: Privately-owned
Owner: B. BANCROFT ESTATE
1985 JOHN FITCH BOULEVARD
SOUTH WINDSOR, CT 06028
Phone 203-668-8909
Manager: STEVE BANCROFT
1985 JOHN FITCH BOULEVARD
SOUTH WINDSOR, CT 06028
Phone 203-668-8909

Airport Operational Statistics

Aircraft based on the field: 1
Single engine airplanes: 1
    

Additional Remarks

PPR
FOR CD CTC YANKEE APCH AT 860-386-3597

Instrument Procedures

There are no published instrument procedures at CT14.

Some nearby airports with instrument procedures:

KBDL - Bradley International Airport (5 nm NW)
KHFD - Hartford-Brainard Airport (8 nm S)
4B8 - Robertson Field Airport (15 nm SW)
KBAF - Westfield-Barnes Regional Airport (18 nm N)
KCEF - Westover Air Reserve Base/Metropolitan Airport (20 nm N)
 
Loc | Ops | Rwys | IFR | FBO | Links
Com | Nav | Svcs | Stats | Notes

Silver City Flying Club
 
Area around CT14 (Bancroft Airport)
 
Road maps at: MapQuest Bing Google
 
Aerial photo
No photo
 
Sectional chart

 
Airport distance calculator
Flying to Bancroft Airport? Find the distance to fly.

From to CT14

Sunrise and sunset
Times for 08-Dec-2022
 Local
(UTC-5)
 Zulu
(UTC)
Morning civil twilight06:3511:35
Sunrise07:0612:06
Sunset16:1821:18
Evening civil twilight16:5021:50

Current date and time
Zulu (UTC)  08-Dec-2022 17:12:52
Local (UTC-5)  08-Dec-2022 12:12:52
 
METAR
KBDL 
5nm NW 
081651Z 32013KT 10SM SCT040 BKN250 11/01 A3019 RMK AO2 SLP224 T01110011
KHFD 
8nm S 
081653Z 32009KT 10SM SCT037 SCT048 11/02 A3020 RMK AO2 SLP225 T01110022
KBAF 
19nm N 
081653Z 33012KT 10SM SCT040 SCT049 10/01 A3019 RMK AO2 SLP224 T01000011
TAF
KBDL 
5nm NW 
081444Z 0815/0918 34009KT P6SM FEW200 FM081600 33011G21KT P6SM FEW250 FM082200 34009KT P6SM FEW250
KBAF 
19nm N 
081120Z 0812/0912 33008KT P6SM FEW200 FM081500 33013G19KT P6SM BKN250 FM082200 34008KT P6SM SKC
NOTAMs
Click for the latest NOTAMs
NOTAMs are issued by the DoD/FAA and will open in a separate window not controlled by AirNav.

 

 
 

Would you like to see your business listed on this page?

 If your business provides an interesting product or service to pilots, flight crews, aircraft, or users of the Bancroft Airport, you should consider listing it here.  To start the listing process, click on the button below
 
Add a business
 

Other Pages about Bancroft Airport

Update a link
 
Copyright © AirNav, LLC. All rights reserved. Privacy Policy  Contact